Edenville, Michigan
Current Conditions -  °F | °C
As of 6:15 AM on Friday 28 Nov 2014 (Local Time) from KIKW Reporting Station
Clear Clear  
Wind Chill: -8°   Ceiling: Unl
Heat Index: -8°   Visibility: 10mi
Dew Point: -10°   Wind: 0mph
Humidity: 82%   Direction: NA
Pressure: 30.32"   Gusts: NA
Location:  43.8°N, 84.38°W
Report Text: KIKW 281115Z AUTO 00000KT 10SM CLR M08/M10 A3032 RMK AO2 T10761102
Loading
Personal Weather Stations






























Interactive Weather Map New forecast layout! Learn more

10-Day Weather Forecast

Advertisements
Track Severe Weather on mobile